Turners, Missouri
Current Conditions -  °F | °C
As of 8:38 PM on Wednesday 17 Dec 2014 (Local Time) from KSGF Reporting Station
Light Snow Light Snow  
Wind Chill: 33°   Ceiling: 3300
Heat Index: 33°   Visibility: 1.7mi
Dew Point: 31°   Wind: 3mph
Humidity: 92%   Direction: 60°ENE
Pressure: 30.22"   Gusts: NA
Location:  37.18°N, 93.16°W
Report Text: KSGF 180238Z 06003KT 1 3/4SM -SN BR OVC033 01/M01 A3022 RMK AO2 RAE05FZRAB05E12SNB12 P0006 I1000 T00061006
Loading
Personal Weather Stations






























Interactive Weather Map New forecast layout! Learn more

10-Day Weather Forecast

Advertisements
Track Severe Weather on mobile